Boise, ID (83726)

5:32 PM MDT on July 30, 2016 (GMT -0600)
Lucky Peak - Barclay Bay | | Change Station
Active Advisory: Fire Weather Warning

Elev 3100 ft 43.52 °N, 116.05 °W | Updated 44 seconds ago

Clear
Clear
97.5 °F
Feels Like 93 °F
N
6.0
Wind Variable Wind from NW
Gusts 14.0 mph

Today
High -- | Low -- °F
--% Chance of Precip.
Yesterday
High -- | Low -- °F
Precip. -- in
Pressure 29.65 in
Visibility 10.0 miles
Clouds Clear
Heat Index 93 °F
Dew Point 38 °F
Humidity 13%
Rainfall 0.00 in
Snow Depth Not available.
6:32 AM 9:07 PM
Waning Crescent, 10% visible
METAR KBOI 302253Z 35011G18KT 10SM CLR 38/04 A2976 RMK AO2 SLP038 T03780039
Pressure 29.65 in
Visibility 10.0 miles
Clouds Clear
Heat Index 93 °F
Dew Point 38 °F
Humidity 13%
Rainfall 0.00 in
Snow Depth Not available.
6:32 AM 9:07 PM
Waning Crescent, 10% visible
METAR KBOI 302253Z 35011G18KT 10SM CLR 38/04 A2976 RMK AO2 SLP038 T03780039

10-Day Weather Forecast

Almanac

Astronomy

Jul. 30, 2016 Rise Set
Actual Time
Civil Twilight
Nautical Twilight
Astronomical Twilight
Moon
Length of Visible Light
Length of Day
Tomorrow will be .
, % of the Moon is Illuminated

Today's Extremes

State Highs State Lows

Community

WunderPhotos

Upload Photos

1,928,675 photos uploaded!

WunderBlog® & News

Nearby

Air Quality

  Air Quality AQ Index Pollutant
Not available.

Snow Depth

Station Depth Elevation

Earthquake Activity

City Distance Mag. Time & Date
Minimum magnitude displayed is 2.5.

Coastal Water Temperatures

Place Temperature

Stations

Nearby Weather Stations

Station Location Temp. Windchill Dew Point Humidity Wind Precip. Elev Updated Type
                   

Watches & Warnings

Fire Weather Warning
Issued: 8:30 AM MDT Jul. 30, 2016 – National Weather Service

... Red flag warning for lightning is in effect from noon today
to midnight MDT tonight for the Owyhee Mountains and southern
Highlands - fire weather zones 423 and 426...

The National Weather Service in Boise has issued a red flag
warning... which is in effect from noon today to midnight MDT
tonight for fire weather zones 423 and 426. This is an upgrade
from the Fire Weather Watch.

* Thunderstorms... scattered in coverage. Isolated storms will
develop by mid-morning... then increase in coverage this
afternoon.

* Outflow winds... gusts to 50 mph are possible... along with
abrupt shifts in wind direction.


Precautionary/preparedness actions...

A red flag warning means that critical fire weather conditions
are either occurring now... or will shortly.




L